Aviation Digital Data Service (ADDS)

Output produced by METARs form (1157 UTC 26 March 2019)
found at http://www.aviationweather.gov/metar/data/
 
VTBD 261130Z 19009KT 9000 FEW020 31/24 Q1010 NOSIG
TAF VTBD 261100Z 2612/2718 20008KT 9000 FEW020 
     BECMG 2620/2622 13005KT 
     BECMG 2702/2704 20008KT 
     TEMPO 2708/2714 14015KT 5000 SHRA FEW018CB SCT030
       
VTUO 261100Z 13003KT 100V160 7000 FEW035 35/20 Q1011 NOSIG
TAF VTUO 261100Z 2612/2712 12005KT 7000 SCT035 
     BECMG 2618/2620 FEW035 
     BECMG 2620/2622 5000 BR NSC 
     BECMG 2700/2702 7000 NSW FEW030
       
VTCC 261130Z 18006KT 8000 FEW035 34/19 Q1011 NOSIG
TAF VTCC 261100Z 2612/2718 17005KT 8000 FEW035
       
VTCT 261100Z VRB02KT 8000 NSC 33/22 Q1010 NOSIG
TAF VTCT 261100Z 2612/2718 12005KT 7000 FEW030
       
VTSE 261100Z 09010KT 9999 SCT020 SCT040 30/25 Q1011 NOSIG
TAF VTSE 261100Z 2612/2712 12008KT 9999 FEW020
       
VTSS 261130Z 06010KT 9999 FEW020 30/24 Q1010 NOSIG
TAF VTSS 261100Z 2612/2712 06010KT 9999 FEW020 
     BECMG 2613/2615 00000KT 
     BECMG 2703/2705 06015KT
       
VTPH 261100Z 17006KT 9999 FEW022 29/25 Q1011 NOSIG
TAF VTPH 261100Z 2612/2712 15010KT 9000 FEW020 
     BECMG 2616/2618 24005KT 
     BECMG 2702/2704 15010KT 
     TEMPO 2704/2708 VRB12KT 5000 TSRA FEW018CB SCT030 BKN100
       
VTUK 261100Z 09003KT 050V140 9000 FEW018CB SCT030 SCT100 35/19 Q1010 NOSIG
TAF VTUK 261100Z 2612/2712 18004KT 9000 FEW030 SCT100 
     BECMG 2621/2623 VRB02KT 5000 BR NSC 
     BECMG 2702/2704 14004KT 8000 NSW FEW030
       
VTSG 261100Z 11008KT 070V140 9999 FEW018CB SCT020 31/23 Q1010 NOSIG
TAF VTSG 261100Z 2612/2712 03004KT 8000 FEW020 
     BECMG 2620/2622 00000KT 3000 BR 
     BECMG 2702/2704 06004KT 9999 NSW 
     TEMPO 2706/2710 VRB10G20KT 5000 TSRA FEW018CB SCT020 BKN100
       
VTCL 261100Z 15006KT 110V190 9999 FEW025 34/19 Q1010 NOSIG
TAF VTCL 261100Z 2612/2712 16005KT 9999 FEW025
       
VTUL 261100Z 18005KT 120V240 5000 BR SCT030 BKN080 28/23 Q1011 NOSIG
TAF VTUL 260500Z 2606/2706 18004KT 7000 SCT030 
     TEMPO 2608/2614 VRB10G20KT 5000 TSRA FEW018CB BKN020 BKN100 
     BECMG 2621/2623 VRB02KT 3000 BR NSC 
     BECMG 2702/2704 22004KT 5000 HZ
       
VTCH 261100Z 00000KT 6000 NSC 35/12 Q1008 NOSIG
TAF VTCH 261100Z 2612/2712 23005KT 6000 FEW030 
     BECMG 2621/2623 2000 BR 
     BECMG 2701/2703 6000 NSW
       
VTPM 261100Z 17007KT 140V210 4000 BR TS SCT025CB BKN080 23/21 Q1011 RERA TEMPO 3000 TSRA
TAF VTPM 261100Z 2612/2712 21005KT 9999 FEW030 
     TEMPO 2706/2712 VRB15G25KT 5000 TSRA FEW020CB BKN030
       
VTUW 261100Z 13004KT 7000 NSC 34/20 Q1010 NOSIG
TAF VTUW 261100Z 2612/2712 12004KT 7000 NSC 
     BECMG 2621/2623 VRB02KT 4000 BR 
     BECMG 2702/2704 14006KT 8000 NSW FEW030 SCT100
       
VTUQ 261100Z 09007KT 060V130 8000 FEW035 34/20 Q1011 NOSIG
TAF VTUQ 261100Z 2612/2712 13005KT 9000 SCT035 
     BECMG 2617/2619 7000 FEW035 
     BECMG 2620/2622 5000 BR NSC 
     BECMG 2701/2703 7000 NSW FEW035
       
VTSF 261100Z 00000KT 9999 SCT018 30/25 Q1011 NOSIG
TAF VTSF 261100Z 2612/2712 10006KT 9999 FEW020
       
VTCN 261100Z 15004KT 9999 FEW025 35/18 Q1008 NOSIG
TAF VTCN 261100Z 2612/2712 17005KT 9999 FEW025 
     TEMPO 2706/2712 VRB15G25KT 5000 TSRA FEW020CB BKN030
       
VTSC 261000Z 08009KT 050V130 9999 SCT022 30/25 Q1010 NOSIG
TAF VTSC 261100Z 2612/2712 09010KT 9999 FEW020 
     BECMG 2614/2616 18005KT 
     BECMG 2703/2705 09010KT
       
TAF VTSK 261100Z 2612/2712 09010KT 9999 FEW020 
     BECMG 2614/2616 15005KT 
     BECMG 2703/2705 09010KT
       
VTPB 261100Z 01009KT 330V040 8000 FEW040 BKN100 31/21 Q1010 NOSIG
TAF VTPB 261100Z 2612/2712 13005KT 7000 FEW035 
     TEMPO 2706/2712 VRB15G25KT 5000 TSRA FEW020CB BKN030
       
VTPP 261100Z 24003KT 8000 FEW025 34/21 Q1009 NOSIG
TAF VTPP 261100Z 2612/2712 17005KT 8000 FEW025 
     TEMPO 2706/2712 VRB15G25KT 5000 TSRA FEW020CB BKN030
       
VTCP 261100Z 20007KT 7000 FEW030 34/19 Q1009 NOSIG
TAF VTCP 261100Z 2612/2712 23005KT 9000 FEW030 
     BECMG 2621/2623 3000 BR 
     BECMG 2701/2703 9000 NSW 
     TEMPO 2706/2712 VRB15G25KT 5000 TSRA FEW020CB BKN030
       
VTSP 261130Z VRB03KT 9000 -TSRA FEW018CB SCT020 28/20 Q1012 NOSIG
TAF VTSP 261100Z 2612/2718 VRB02KT 9000 FEW020 
     BECMG 2618/2620 10010KT 
     BECMG 2706/2708 29007KT 9999 
     TEMPO 2706/2710 VRB10G20KT 5000 TSRA FEW018CB SCT020 BKN100 
     BECMG 2712/2714 VRB02KT 9000
       
VTSR 261100Z VRB06KT 9999 FEW020 BKN100 31/23 Q1010 NOSIG
TAF VTSR 261100Z 2612/2712 08004KT 9999 FEW030 
     TEMPO 2702/2706 10010G25KT 
     TEMPO 2706/2710 10010G25KT 5000 TSRA FEW018CB SCT020 BKN100
       
VTUV 261100Z 15004KT 7000 NSC 34/18 Q1010 NOSIG
TAF VTUV 261100Z 2612/2712 12006KT 7000 SCT030 
     BECMG 2616/2618 FEW030 
     BECMG 2621/2623 5000 BR NSC 
     BECMG 2701/2703 6000 NSW FEW030
       
VTUI 261100Z 00000KT CAVOK 32/23 Q1010 NOSIG
TAF VTUI 261100Z 2612/2712 14004KT 9000 NSC 
     BECMG 2621/2623 VRB02KT 5000 BR 
     BECMG 2702/2704 16006KT 9999 NSW FEW030 SCT100
       
VTSM 261130Z 13009KT 9999 FEW020TCU 30/25 Q1012 NOSIG
TAF VTSM 261100Z 2612/2712 14008KT 9999 FEW020
       
VTSH 261100Z 06008KT 9999 FEW020 29/25 Q1009 NOSIG
TAF VTSH 261100Z 2612/2712 09010KT 9999 FEW020
       
VTPO 261000Z 16004KT 6000 FEW025 36/21 Q1008 NOSIG
TAF VTPO 261100Z 2612/2712 17005KT 8000 FEW025 
     BECMG 2621/2623 2000 BR 
     BECMG 2701/2703 8000 NSW 
     TEMPO 2706/2712 VRB15G25KT 5000 TSRA FEW020CB BKN030
       
VTSB 261100Z 05011KT 9999 FEW020 32/25 Q1010
TAF VTSB 261100Z 2612/2712 07008KT 9999 FEW020
       
TAF VTPT 261100Z 2612/2712 26005KT 6000 SCT030 
     TEMPO 2706/2712 VRB15G25KT 5000 TSRA FEW020CB BKN030
       
VTST 261100Z 07009KT 9999 FEW020 31/22 Q1008 NOSIG
TAF VTST 261100Z 2612/2712 35004KT 9999 FEW020 
     BECMG 2620/2622 00000KT 3000 BR 
     BECMG 2702/2704 07008KT 9999 NSW
       
VTBU 261130Z 19007KT 6000 FEW020 29/23 Q1011 NOSIG
TAF VTBU 261100Z 2612/2712 18004KT 5000 BR FEW020 
     BECMG 2700/2702 18008KT 7000
       
VTUU 261100Z 00000KT 8000 NSC 34/21 Q1010 NOSIG
TAF VTUU 261100Z 2612/2712 12005KT 9000 FEW035 
     BECMG 2617/2619 8000 NSC 
     BECMG 2620/2622 6000 
     BECMG 2701/2703 7000 FEW030
       
VTUD 261100Z 19009KT 170V230 7000 -RA FEW030 SCT070 27/22 Q1011 NOSIG
TAF VTUD 260500Z 2606/2706 12004KT 9000 FEW030 
     BECMG 2621/2623VRB02KT 5000 BR NSC 
     BECMG 2702/2704 14004KT 8000 NSW